East Dundee, Illinois
Current Conditions -  °F | °C
As of 8:52 PM on Wednesday 26 Nov 2014 (Local Time) from KDPA Reporting Station
Haze Haze  
Wind Chill: 23°   Ceiling: 1600
Heat Index: 28°   Visibility: 6mi
Dew Point: 23°   Wind: 5mph
Humidity: 81%   Direction: 360°N
Pressure: 30.15"   Gusts: NA
Location:  42.1081°N, 88.3234°W
Report Text: KDPA 270252Z 36004KT 6SM HZ OVC016 M02/M05 A3015 RMK AO2 SLP221 T10221050 51014
Loading
Personal Weather Stations






























Interactive Weather Map New forecast layout! Learn more

10-Day Weather Forecast

Advertisements
Track Severe Weather on mobile